sensor_id;sensor_type;location;lat;lon;timestamp;P1;durP1;ratioP1;P2;durP2;ratioP2
56469;SDS011;42374;51.464;-2.590;2022-09-09T00:04:38;12.40;;;7.57;;
56469;SDS011;42374;51.464;-2.590;2022-09-09T00:09:35;14.35;;;8.52;;
56469;SDS011;42374;51.464;-2.590;2022-09-09T00:12:16;15.73;;;7.65;;
56469;SDS011;42374;51.464;-2.590;2022-09-09T00:14:49;11.43;;;6.60;;
56469;SDS011;42374;51.464;-2.590;2022-09-09T00:19:57;10.90;;;4.07;;
56469;SDS011;42374;51.464;-2.590;2022-09-09T00:22:25;5.03;;;2.92;;
56469;SDS011;42374;51.464;-2.590;2022-09-09T00:24:57;6.60;;;2.60;;
56469;SDS011;42374;51.464;-2.590;2022-09-09T00:32:24;4.68;;;1.90;;
56469;SDS011;42374;51.464;-2.590;2022-09-09T00:35:03;6.13;;;1.85;;
56469;SDS011;42374;51.464;-2.590;2022-09-09T00:37:39;3.25;;;1.90;;
56469;SDS011;42374;51.464;-2.590;2022-09-09T00:40:11;7.38;;;1.63;;
56469;SDS011;42374;51.464;-2.590;2022-09-09T00:42:42;2.45;;;1.38;;
56469;SDS011;42374;51.464;-2.590;2022-09-09T00:45:18;3.78;;;1.63;;
56469;SDS011;42374;51.464;-2.590;2022-09-09T00:53:02;3.83;;;1.50;;
56469;SDS011;42374;51.464;-2.590;2022-09-09T00:58:09;3.00;;;1.23;;
56469;SDS011;42374;51.464;-2.590;2022-09-09T01:00:43;2.72;;;1.40;;
56469;SDS011;42374;51.464;-2.590;2022-09-09T01:05:41;3.95;;;1.30;;
56469;SDS011;42374;51.464;-2.590;2022-09-09T01:08:26;5.00;;;1.40;;
56469;SDS011;42374;51.464;-2.590;2022-09-09T01:10:53;4.60;;;1.70;;
56469;SDS011;42374;51.464;-2.590;2022-09-09T01:13:22;7.50;;;1.60;;
56469;SDS011;42374;51.464;-2.590;2022-09-09T01:15:49;4.47;;;1.38;;
56469;SDS011;42374;51.464;-2.590;2022-09-09T01:18:19;4.07;;;1.80;;
56469;SDS011;42374;51.464;-2.590;2022-09-09T01:28:37;3.47;;;1.60;;
56469;SDS011;42374;51.464;-2.590;2022-09-09T01:31:05;5.00;;;1.40;;
56469;SDS011;42374;51.464;-2.590;2022-09-09T01:33:32;3.67;;;1.60;;
56469;SDS011;42374;51.464;-2.590;2022-09-09T01:36:06;4.97;;;1.60;;
56469;SDS011;42374;51.464;-2.590;2022-09-09T01:38:33;7.70;;;1.60;;
56469;SDS011;42374;51.464;-2.590;2022-09-09T01:41:00;4.95;;;1.55;;
56469;SDS011;42374;51.464;-2.590;2022-09-09T01:43:26;3.30;;;1.95;;
56469;SDS011;42374;51.464;-2.590;2022-09-09T01:45:53;4.43;;;1.60;;
56469;SDS011;42374;51.464;-2.590;2022-09-09T01:48:20;3.53;;;1.50;;
56469;SDS011;42374;51.464;-2.590;2022-09-09T01:50:47;2.28;;;1.13;;
56469;SDS011;42374;51.464;-2.590;2022-09-09T01:53:13;5.13;;;1.40;;
56469;SDS011;42374;51.464;-2.590;2022-09-09T01:55:41;3.60;;;1.27;;
56469;SDS011;42374;51.464;-2.590;2022-09-09T02:00:59;4.90;;;1.92;;
56469;SDS011;42374;51.464;-2.590;2022-09-09T02:03:29;4.60;;;2.03;;
56469;SDS011;42374;51.464;-2.590;2022-09-09T02:08:36;4.68;;;1.70;;
56469;SDS011;42374;51.464;-2.590;2022-09-09T02:11:06;3.53;;;1.45;;
56469;SDS011;42374;51.464;-2.590;2022-09-09T02:13:32;3.88;;;1.25;;
56469;SDS011;42374;51.464;-2.590;2022-09-09T02:18:31;2.05;;;1.30;;
56469;SDS011;42374;51.464;-2.590;2022-09-09T02:20:59;1.98;;;1.10;;
56469;SDS011;42374;51.464;-2.590;2022-09-09T02:23:25;3.97;;;1.17;;
56469;SDS011;42374;51.464;-2.590;2022-09-09T02:25:51;3.13;;;1.20;;
56469;SDS011;42374;51.464;-2.590;2022-09-09T02:28:19;2.90;;;0.90;;
56469;SDS011;42374;51.464;-2.590;2022-09-09T02:30:46;5.28;;;1.20;;
56469;SDS011;42374;51.464;-2.590;2022-09-09T02:33:15;2.67;;;1.05;;
56469;SDS011;42374;51.464;-2.590;2022-09-09T02:35:42;3.63;;;0.90;;
56469;SDS011;42374;51.464;-2.590;2022-09-09T02:38:10;2.90;;;1.73;;
56469;SDS011;42374;51.464;-2.590;2022-09-09T02:40:38;3.88;;;1.20;;
56469;SDS011;42374;51.464;-2.590;2022-09-09T02:43:04;3.58;;;1.00;;
56469;SDS011;42374;51.464;-2.590;2022-09-09T02:45:36;4.05;;;1.00;;
56469;SDS011;42374;51.464;-2.590;2022-09-09T02:50:40;5.18;;;1.25;;
56469;SDS011;42374;51.464;-2.590;2022-09-09T02:55:38;3.33;;;1.00;;
56469;SDS011;42374;51.464;-2.590;2022-09-09T02:58:06;1.95;;;0.80;;
56469;SDS011;42374;51.464;-2.590;2022-09-09T03:00:36;2.35;;;1.00;;
56469;SDS011;42374;51.464;-2.590;2022-09-09T03:03:06;5.07;;;1.30;;
56469;SDS011;42374;51.464;-2.590;2022-09-09T03:05:33;1.60;;;0.80;;
56469;SDS011;42374;51.464;-2.590;2022-09-09T03:08:00;4.30;;;0.93;;
56469;SDS011;42374;51.464;-2.590;2022-09-09T03:10:27;4.47;;;1.02;;
56469;SDS011;42374;51.464;-2.590;2022-09-09T03:12:53;2.70;;;0.90;;
56469;SDS011;42374;51.464;-2.590;2022-09-09T03:15:20;3.00;;;0.93;;
56469;SDS011;42374;51.464;-2.590;2022-09-09T03:17:46;4.93;;;0.80;;
56469;SDS011;42374;51.464;-2.590;2022-09-09T03:20:12;3.88;;;1.10;;
56469;SDS011;42374;51.464;-2.590;2022-09-09T03:22:38;2.35;;;1.00;;
56469;SDS011;42374;51.464;-2.590;2022-09-09T03:25:05;2.47;;;0.90;;
56469;SDS011;42374;51.464;-2.590;2022-09-09T03:27:32;2.40;;;0.93;;
56469;SDS011;42374;51.464;-2.590;2022-09-09T03:29:58;2.08;;;0.70;;
56469;SDS011;42374;51.464;-2.590;2022-09-09T03:32:28;4.35;;;0.80;;
56469;SDS011;42374;51.464;-2.590;2022-09-09T03:34:56;2.92;;;1.30;;
56469;SDS011;42374;51.464;-2.590;2022-09-09T03:39:51;2.47;;;1.00;;
56469;SDS011;42374;51.464;-2.590;2022-09-09T03:42:19;5.25;;;0.90;;
56469;SDS011;42374;51.464;-2.590;2022-09-09T03:44:45;4.38;;;1.38;;
56469;SDS011;42374;51.464;-2.590;2022-09-09T03:47:18;3.75;;;1.05;;
56469;SDS011;42374;51.464;-2.590;2022-09-09T03:49:44;3.15;;;0.90;;
56469;SDS011;42374;51.464;-2.590;2022-09-09T03:52:10;4.57;;;1.33;;
56469;SDS011;42374;51.464;-2.590;2022-09-09T03:54:36;2.83;;;1.20;;
56469;SDS011;42374;51.464;-2.590;2022-09-09T04:00:07;7.40;;;1.30;;
56469;SDS011;42374;51.464;-2.590;2022-09-09T04:02:33;3.15;;;1.00;;
56469;SDS011;42374;51.464;-2.590;2022-09-09T04:04:59;6.25;;;1.02;;
56469;SDS011;42374;51.464;-2.590;2022-09-09T04:07:27;3.80;;;1.45;;
56469;SDS011;42374;51.464;-2.590;2022-09-09T04:09:53;3.67;;;1.10;;
56469;SDS011;42374;51.464;-2.590;2022-09-09T04:12:19;5.00;;;1.10;;
56469;SDS011;42374;51.464;-2.590;2022-09-09T04:14:46;1.75;;;0.80;;
56469;SDS011;42374;51.464;-2.590;2022-09-09T04:17:12;4.03;;;1.27;;
56469;SDS011;42374;51.464;-2.590;2022-09-09T04:19:38;4.47;;;1.20;;
56469;SDS011;42374;51.464;-2.590;2022-09-09T04:22:03;2.50;;;0.80;;
56469;SDS011;42374;51.464;-2.590;2022-09-09T04:24:30;2.97;;;0.98;;
56469;SDS011;42374;51.464;-2.590;2022-09-09T04:26:56;3.92;;;1.33;;
56469;SDS011;42374;51.464;-2.590;2022-09-09T04:29:22;4.90;;;0.98;;
56469;SDS011;42374;51.464;-2.590;2022-09-09T04:31:48;1.88;;;0.93;;
56469;SDS011;42374;51.464;-2.590;2022-09-09T04:34:14;2.08;;;0.90;;
56469;SDS011;42374;51.464;-2.590;2022-09-09T04:36:42;2.33;;;0.70;;
56469;SDS011;42374;51.464;-2.590;2022-09-09T04:39:08;2.83;;;0.80;;
56469;SDS011;42374;51.464;-2.590;2022-09-09T04:41:34;2.17;;;0.70;;
56469;SDS011;42374;51.464;-2.590;2022-09-09T04:44:00;2.95;;;0.80;;
56469;SDS011;42374;51.464;-2.590;2022-09-09T04:46:26;4.35;;;0.80;;
56469;SDS011;42374;51.464;-2.590;2022-09-09T04:48:53;2.58;;;0.70;;
56469;SDS011;42374;51.464;-2.590;2022-09-09T04:51:19;1.75;;;0.50;;
56469;SDS011;42374;51.464;-2.590;2022-09-09T04:53:45;2.50;;;0.70;;
56469;SDS011;42374;51.464;-2.590;2022-09-09T04:56:16;1.08;;;0.50;;
56469;SDS011;42374;51.464;-2.590;2022-09-09T04:58:42;3.78;;;0.63;;
56469;SDS011;42374;51.464;-2.590;2022-09-09T05:01:12;3.38;;;0.80;;
56469;SDS011;42374;51.464;-2.590;2022-09-09T05:03:39;4.00;;;0.63;;
56469;SDS011;42374;51.464;-2.590;2022-09-09T05:06:07;8.48;;;0.70;;
56469;SDS011;42374;51.464;-2.590;2022-09-09T05:08:34;4.05;;;0.52;;
56469;SDS011;42374;51.464;-2.590;2022-09-09T05:11:00;3.28;;;0.60;;
56469;SDS011;42374;51.464;-2.590;2022-09-09T05:13:27;3.60;;;0.55;;
56469;SDS011;42374;51.464;-2.590;2022-09-09T05:15:54;2.13;;;0.60;;
56469;SDS011;42374;51.464;-2.590;2022-09-09T05:18:20;2.47;;;0.70;;
56469;SDS011;42374;51.464;-2.590;2022-09-09T05:20:47;5.43;;;0.50;;
56469;SDS011;42374;51.464;-2.590;2022-09-09T05:23:13;1.90;;;0.40;;
56469;SDS011;42374;51.464;-2.590;2022-09-09T05:25:39;2.55;;;0.50;;
56469;SDS011;42374;51.464;-2.590;2022-09-09T05:28:06;1.95;;;0.50;;
56469;SDS011;42374;51.464;-2.590;2022-09-09T05:30:33;3.80;;;0.40;;
56469;SDS011;42374;51.464;-2.590;2022-09-09T05:32:59;3.63;;;0.47;;
56469;SDS011;42374;51.464;-2.590;2022-09-09T05:35:25;3.30;;;0.68;;
56469;SDS011;42374;51.464;-2.590;2022-09-09T05:37:51;4.47;;;0.70;;
56469;SDS011;42374;51.464;-2.590;2022-09-09T05:40:17;4.50;;;0.50;;
56469;SDS011;42374;51.464;-2.590;2022-09-09T05:42:43;3.42;;;0.40;;
56469;SDS011;42374;51.464;-2.590;2022-09-09T05:45:09;4.07;;;0.60;;
56469;SDS011;42374;51.464;-2.590;2022-09-09T05:47:36;2.35;;;0.50;;
56469;SDS011;42374;51.464;-2.590;2022-09-09T05:50:02;2.72;;;0.90;;
56469;SDS011;42374;51.464;-2.590;2022-09-09T05:52:29;2.75;;;0.65;;
56469;SDS011;42374;51.464;-2.590;2022-09-09T05:54:55;1.48;;;0.60;;
56469;SDS011;42374;51.464;-2.590;2022-09-09T05:57:23;4.28;;;0.57;;
56469;SDS011;42374;51.464;-2.590;2022-09-09T05:59:49;6.53;;;0.68;;
56469;SDS011;42374;51.464;-2.590;2022-09-09T06:02:15;1.15;;;0.40;;
56469;SDS011;42374;51.464;-2.590;2022-09-09T06:04:41;2.50;;;0.47;;
56469;SDS011;42374;51.464;-2.590;2022-09-09T06:07:07;3.70;;;0.50;;
56469;SDS011;42374;51.464;-2.590;2022-09-09T06:09:33;3.13;;;0.50;;
56469;SDS011;42374;51.464;-2.590;2022-09-09T06:11:59;2.58;;;0.50;;
56469;SDS011;42374;51.464;-2.590;2022-09-09T06:14:25;4.43;;;0.63;;
56469;SDS011;42374;51.464;-2.590;2022-09-09T06:16:52;2.55;;;0.50;;
56469;SDS011;42374;51.464;-2.590;2022-09-09T06:19:18;2.00;;;0.60;;
56469;SDS011;42374;51.464;-2.590;2022-09-09T06:21:45;4.30;;;0.80;;
56469;SDS011;42374;51.464;-2.590;2022-09-09T06:24:12;4.32;;;0.68;;
56469;SDS011;42374;51.464;-2.590;2022-09-09T06:26:44;4.63;;;0.70;;
56469;SDS011;42374;51.464;-2.590;2022-09-09T06:29:10;2.03;;;0.70;;
56469;SDS011;42374;51.464;-2.590;2022-09-09T06:31:36;4.18;;;1.00;;
56469;SDS011;42374;51.464;-2.590;2022-09-09T06:34:06;2.95;;;0.73;;
56469;SDS011;42374;51.464;-2.590;2022-09-09T06:36:33;4.60;;;0.70;;
56469;SDS011;42374;51.464;-2.590;2022-09-09T06:39:00;1.40;;;0.82;;
56469;SDS011;42374;51.464;-2.590;2022-09-09T06:41:27;1.58;;;0.60;;
56469;SDS011;42374;51.464;-2.590;2022-09-09T06:43:53;2.45;;;0.75;;
56469;SDS011;42374;51.464;-2.590;2022-09-09T06:49:13;3.13;;;0.50;;
56469;SDS011;42374;51.464;-2.590;2022-09-09T06:51:39;4.78;;;0.88;;
56469;SDS011;42374;51.464;-2.590;2022-09-09T06:54:08;6.55;;;0.50;;
56469;SDS011;42374;51.464;-2.590;2022-09-09T06:56:38;2.67;;;0.88;;
56469;SDS011;42374;51.464;-2.590;2022-09-09T06:59:07;11.20;;;3.90;;
56469;SDS011;42374;51.464;-2.590;2022-09-09T07:01:36;2.83;;;0.70;;
56469;SDS011;42374;51.464;-2.590;2022-09-09T07:04:03;3.47;;;0.60;;
56469;SDS011;42374;51.464;-2.590;2022-09-09T07:09:36;4.65;;;0.70;;
56469;SDS011;42374;51.464;-2.590;2022-09-09T07:12:02;9.45;;;1.67;;
56469;SDS011;42374;51.464;-2.590;2022-09-09T07:14:30;3.08;;;0.50;;
56469;SDS011;42374;51.464;-2.590;2022-09-09T07:16:57;2.40;;;0.90;;
56469;SDS011;42374;51.464;-2.590;2022-09-09T07:19:23;3.58;;;0.70;;
56469;SDS011;42374;51.464;-2.590;2022-09-09T07:21:49;2.05;;;0.50;;
56469;SDS011;42374;51.464;-2.590;2022-09-09T07:24:15;2.63;;;0.60;;
56469;SDS011;42374;51.464;-2.590;2022-09-09T07:26:41;2.90;;;0.95;;
56469;SDS011;42374;51.464;-2.590;2022-09-09T07:29:09;2.47;;;0.80;;
56469;SDS011;42374;51.464;-2.590;2022-09-09T07:31:36;2.20;;;0.80;;
56469;SDS011;42374;51.464;-2.590;2022-09-09T07:34:02;4.65;;;0.80;;
56469;SDS011;42374;51.464;-2.590;2022-09-09T07:39:15;4.00;;;0.80;;
56469;SDS011;42374;51.464;-2.590;2022-09-09T07:41:43;6.28;;;0.90;;
56469;SDS011;42374;51.464;-2.590;2022-09-09T07:44:11;1.85;;;0.60;;
56469;SDS011;42374;51.464;-2.590;2022-09-09T07:46:38;6.72;;;0.80;;
56469;SDS011;42374;51.464;-2.590;2022-09-09T07:49:04;2.92;;;0.80;;
56469;SDS011;42374;51.464;-2.590;2022-09-09T07:51:32;2.33;;;1.10;;
56469;SDS011;42374;51.464;-2.590;2022-09-09T07:54:00;5.22;;;0.60;;
56469;SDS011;42374;51.464;-2.590;2022-09-09T07:56:27;2.75;;;0.70;;
56469;SDS011;42374;51.464;-2.590;2022-09-09T07:58:54;2.55;;;0.60;;
56469;SDS011;42374;51.464;-2.590;2022-09-09T08:01:24;1.70;;;0.45;;
56469;SDS011;42374;51.464;-2.590;2022-09-09T08:03:55;2.22;;;0.50;;
56469;SDS011;42374;51.464;-2.590;2022-09-09T08:09:19;0.98;;;0.50;;
56469;SDS011;42374;51.464;-2.590;2022-09-09T08:11:45;3.22;;;0.60;;
56469;SDS011;42374;51.464;-2.590;2022-09-09T08:14:12;1.48;;;0.50;;
56469;SDS011;42374;51.464;-2.590;2022-09-09T08:16:42;3.03;;;0.50;;
56469;SDS011;42374;51.464;-2.590;2022-09-09T08:19:09;0.80;;;0.35;;
56469;SDS011;42374;51.464;-2.590;2022-09-09T08:21:36;3.05;;;0.25;;
56469;SDS011;42374;51.464;-2.590;2022-09-09T08:24:03;3.38;;;0.40;;
56469;SDS011;42374;51.464;-2.590;2022-09-09T08:26:34;2.20;;;0.40;;
56469;SDS011;42374;51.464;-2.590;2022-09-09T08:29:00;1.20;;;0.40;;
56469;SDS011;42374;51.464;-2.590;2022-09-09T08:31:30;1.27;;;0.40;;
56469;SDS011;42374;51.464;-2.590;2022-09-09T08:33:57;1.38;;;0.40;;
56469;SDS011;42374;51.464;-2.590;2022-09-09T08:39:15;2.15;;;0.30;;
56469;SDS011;42374;51.464;-2.590;2022-09-09T08:52:03;1.48;;;0.47;;
56469;SDS011;42374;51.464;-2.590;2022-09-09T08:54:35;5.47;;;0.55;;
56469;SDS011;42374;51.464;-2.590;2022-09-09T08:57:02;1.83;;;0.25;;
56469;SDS011;42374;51.464;-2.590;2022-09-09T08:59:29;2.97;;;0.40;;
56469;SDS011;42374;51.464;-2.590;2022-09-09T09:02:04;2.53;;;0.20;;
56469;SDS011;42374;51.464;-2.590;2022-09-09T09:10:35;0.70;;;0.32;;
56469;SDS011;42374;51.464;-2.590;2022-09-09T09:12:51;3.17;;;0.30;;
56469;SDS011;42374;51.464;-2.590;2022-09-09T09:15:25;1.92;;;0.60;;
56469;SDS011;42374;51.464;-2.590;2022-09-09T09:20:42;2.90;;;0.50;;
56469;SDS011;42374;51.464;-2.590;2022-09-09T09:23:15;1.00;;;0.30;;
56469;SDS011;42374;51.464;-2.590;2022-09-09T09:25:43;2.05;;;0.40;;
56469;SDS011;42374;51.464;-2.590;2022-09-09T09:34:03;1.83;;;0.40;;
56469;SDS011;42374;51.464;-2.590;2022-09-09T09:36:45;6.60;;;0.55;;
56469;SDS011;42374;51.464;-2.590;2022-09-09T09:39:22;1.65;;;0.70;;
56469;SDS011;42374;51.464;-2.590;2022-09-09T09:41:48;2.10;;;0.43;;
56469;SDS011;42374;51.464;-2.590;2022-09-09T09:46:47;2.67;;;0.52;;
56469;SDS011;42374;51.464;-2.590;2022-09-09T09:49:13;1.80;;;0.40;;
56469;SDS011;42374;51.464;-2.590;2022-09-09T09:51:39;1.42;;;0.40;;
56469;SDS011;42374;51.464;-2.590;2022-09-09T09:54:13;2.40;;;0.40;;
56469;SDS011;42374;51.464;-2.590;2022-09-09T09:56:42;1.20;;;0.57;;
56469;SDS011;42374;51.464;-2.590;2022-09-09T10:01:53;0.60;;;0.20;;
56469;SDS011;42374;51.464;-2.590;2022-09-09T10:04:20;15.10;;;6.13;;
56469;SDS011;42374;51.464;-2.590;2022-09-09T10:09:35;1.00;;;0.40;;
56469;SDS011;42374;51.464;-2.590;2022-09-09T10:22:37;6.00;;;3.17;;
56469;SDS011;42374;51.464;-2.590;2022-09-09T10:25:24;1.25;;;0.20;;
56469;SDS011;42374;51.464;-2.590;2022-09-09T10:36:01;2.55;;;0.47;;
56469;SDS011;42374;51.464;-2.590;2022-09-09T10:38:45;5.70;;;2.47;;
56469;SDS011;42374;51.464;-2.590;2022-09-09T10:46:49;3.38;;;0.65;;
56469;SDS011;42374;51.464;-2.590;2022-09-09T10:56:40;1.02;;;0.20;;
56469;SDS011;42374;51.464;-2.590;2022-09-09T11:01:43;2.03;;;1.05;;
56469;SDS011;42374;51.464;-2.590;2022-09-09T11:04:14;2.80;;;0.70;;
56469;SDS011;42374;51.464;-2.590;2022-09-09T11:06:44;2.13;;;0.40;;
56469;SDS011;42374;51.464;-2.590;2022-09-09T11:09:15;3.25;;;1.00;;
56469;SDS011;42374;51.464;-2.590;2022-09-09T11:11:48;2.03;;;0.77;;
56469;SDS011;42374;51.464;-2.590;2022-09-09T11:14:15;3.75;;;1.25;;
56469;SDS011;42374;51.464;-2.590;2022-09-09T11:19:34;1.92;;;0.70;;
56469;SDS011;42374;51.464;-2.590;2022-09-09T11:22:02;3.58;;;0.50;;
56469;SDS011;42374;51.464;-2.590;2022-09-09T11:24:42;2.88;;;0.70;;
56469;SDS011;42374;51.464;-2.590;2022-09-09T11:27:29;1.42;;;0.50;;
56469;SDS011;42374;51.464;-2.590;2022-09-09T11:30:01;1.85;;;0.50;;
56469;SDS011;42374;51.464;-2.590;2022-09-09T11:38:27;3.83;;;0.60;;
56469;SDS011;42374;51.464;-2.590;2022-09-09T11:41:01;2.63;;;0.73;;
56469;SDS011;42374;51.464;-2.590;2022-09-09T11:43:32;3.30;;;0.50;;
56469;SDS011;42374;51.464;-2.590;2022-09-09T11:51:09;3.28;;;0.50;;
56469;SDS011;42374;51.464;-2.590;2022-09-09T11:53:48;1.05;;;0.43;;
56469;SDS011;42374;51.464;-2.590;2022-09-09T11:56:26;4.28;;;0.60;;
56469;SDS011;42374;51.464;-2.590;2022-09-09T11:59:03;2.08;;;0.50;;
56469;SDS011;42374;51.464;-2.590;2022-09-09T12:04:09;6.10;;;3.40;;
56469;SDS011;42374;51.464;-2.590;2022-09-09T12:12:07;2.92;;;0.80;;
56469;SDS011;42374;51.464;-2.590;2022-09-09T12:14:35;1.85;;;1.10;;
56469;SDS011;42374;51.464;-2.590;2022-09-09T12:20:13;3.55;;;0.80;;
56469;SDS011;42374;51.464;-2.590;2022-09-09T12:22:42;2.42;;;0.90;;
56469;SDS011;42374;51.464;-2.590;2022-09-09T12:25:16;3.63;;;0.73;;
56469;SDS011;42374;51.464;-2.590;2022-09-09T12:30:34;2.58;;;0.70;;
56469;SDS011;42374;51.464;-2.590;2022-09-09T12:33:06;3.13;;;0.60;;
56469;SDS011;42374;51.464;-2.590;2022-09-09T12:35:34;3.58;;;0.98;;
56469;SDS011;42374;51.464;-2.590;2022-09-09T12:40:56;1.95;;;0.40;;
56469;SDS011;42374;51.464;-2.590;2022-09-09T12:43:23;4.40;;;0.60;;
56469;SDS011;42374;51.464;-2.590;2022-09-09T12:45:50;2.65;;;0.63;;
56469;SDS011;42374;51.464;-2.590;2022-09-09T12:48:22;3.38;;;0.50;;
56469;SDS011;42374;51.464;-2.590;2022-09-09T12:50:51;2.67;;;0.40;;
56469;SDS011;42374;51.464;-2.590;2022-09-09T12:53:26;2.95;;;1.23;;
56469;SDS011;42374;51.464;-2.590;2022-09-09T12:58:57;3.58;;;0.57;;
56469;SDS011;42374;51.464;-2.590;2022-09-09T13:01:30;3.25;;;0.60;;
56469;SDS011;42374;51.464;-2.590;2022-09-09T13:03:58;6.53;;;1.10;;
56469;SDS011;42374;51.464;-2.590;2022-09-09T13:06:29;2.65;;;0.60;;
56469;SDS011;42374;51.464;-2.590;2022-09-09T13:09:00;2.38;;;0.80;;
56469;SDS011;42374;51.464;-2.590;2022-09-09T13:13:54;2.13;;;0.82;;
56469;SDS011;42374;51.464;-2.590;2022-09-09T13:19:24;3.35;;;0.98;;
56469;SDS011;42374;51.464;-2.590;2022-09-09T13:21:55;2.80;;;1.23;;
56469;SDS011;42374;51.464;-2.590;2022-09-09T13:24:25;3.60;;;1.30;;
56469;SDS011;42374;51.464;-2.590;2022-09-09T13:29:59;5.85;;;1.45;;
56469;SDS011;42374;51.464;-2.590;2022-09-09T13:32:26;2.70;;;1.02;;
56469;SDS011;42374;51.464;-2.590;2022-09-09T13:34:52;3.70;;;1.08;;
56469;SDS011;42374;51.464;-2.590;2022-09-09T13:40:12;3.08;;;1.40;;
56469;SDS011;42374;51.464;-2.590;2022-09-09T13:42:42;3.55;;;1.10;;
56469;SDS011;42374;51.464;-2.590;2022-09-09T13:45:28;2.67;;;1.10;;
56469;SDS011;42374;51.464;-2.590;2022-09-09T13:56:47;2.45;;;0.80;;
56469;SDS011;42374;51.464;-2.590;2022-09-09T13:59:18;1.10;;;0.65;;
56469;SDS011;42374;51.464;-2.590;2022-09-09T14:01:45;1.92;;;0.70;;
56469;SDS011;42374;51.464;-2.590;2022-09-09T14:04:11;3.03;;;0.88;;
56469;SDS011;42374;51.464;-2.590;2022-09-09T14:12:45;4.72;;;0.90;;
56469;SDS011;42374;51.464;-2.590;2022-09-09T14:15:11;2.22;;;0.80;;
56469;SDS011;42374;51.464;-2.590;2022-09-09T14:20:42;2.83;;;1.00;;
56469;SDS011;42374;51.464;-2.590;2022-09-09T14:23:09;2.15;;;1.00;;
56469;SDS011;42374;51.464;-2.590;2022-09-09T14:25:35;1.88;;;1.00;;
56469;SDS011;42374;51.464;-2.590;2022-09-09T14:31:05;6.28;;;0.80;;
56469;SDS011;42374;51.464;-2.590;2022-09-09T14:33:32;1.58;;;0.70;;
56469;SDS011;42374;51.464;-2.590;2022-09-09T14:36:00;1.08;;;0.70;;
56469;SDS011;42374;51.464;-2.590;2022-09-09T14:38:29;4.82;;;1.00;;
56469;SDS011;42374;51.464;-2.590;2022-09-09T14:40:56;1.10;;;0.60;;
56469;SDS011;42374;51.464;-2.590;2022-09-09T14:43:23;3.92;;;0.70;;
56469;SDS011;42374;51.464;-2.590;2022-09-09T14:45:49;3.03;;;0.90;;
56469;SDS011;42374;51.464;-2.590;2022-09-09T14:48:19;1.40;;;0.80;;
56469;SDS011;42374;51.464;-2.590;2022-09-09T14:50:45;2.90;;;0.90;;
56469;SDS011;42374;51.464;-2.590;2022-09-09T14:53:11;4.10;;;0.90;;
56469;SDS011;42374;51.464;-2.590;2022-09-09T14:55:37;2.05;;;0.90;;
56469;SDS011;42374;51.464;-2.590;2022-09-09T14:58:06;2.47;;;1.00;;
56469;SDS011;42374;51.464;-2.590;2022-09-09T15:00:32;1.98;;;1.00;;
56469;SDS011;42374;51.464;-2.590;2022-09-09T15:02:58;1.65;;;0.70;;
56469;SDS011;42374;51.464;-2.590;2022-09-09T15:05:24;1.25;;;0.70;;
56469;SDS011;42374;51.464;-2.590;2022-09-09T15:10:21;0.88;;;0.30;;
56469;SDS011;42374;51.464;-2.590;2022-09-09T15:12:47;1.67;;;0.40;;
56469;SDS011;42374;51.464;-2.590;2022-09-09T15:15:16;1.35;;;0.47;;
56469;SDS011;42374;51.464;-2.590;2022-09-09T15:17:44;2.63;;;0.60;;
56469;SDS011;42374;51.464;-2.590;2022-09-09T15:20:10;1.45;;;0.43;;
56469;SDS011;42374;51.464;-2.590;2022-09-09T15:22:36;2.28;;;0.60;;
56469;SDS011;42374;51.464;-2.590;2022-09-09T15:25:03;1.40;;;0.55;;
56469;SDS011;42374;51.464;-2.590;2022-09-09T15:27:30;2.67;;;0.35;;
56469;SDS011;42374;51.464;-2.590;2022-09-09T15:29:56;0.93;;;0.60;;
56469;SDS011;42374;51.464;-2.590;2022-09-09T15:32:23;2.22;;;0.60;;
56469;SDS011;42374;51.464;-2.590;2022-09-09T15:34:49;1.60;;;0.55;;
56469;SDS011;42374;51.464;-2.590;2022-09-09T15:37:17;1.80;;;0.50;;
56469;SDS011;42374;51.464;-2.590;2022-09-09T15:39:43;1.27;;;0.57;;
56469;SDS011;42374;51.464;-2.590;2022-09-09T15:42:09;2.05;;;0.73;;
56469;SDS011;42374;51.464;-2.590;2022-09-09T15:44:39;4.28;;;1.33;;
56469;SDS011;42374;51.464;-2.590;2022-09-09T15:47:10;2.67;;;0.82;;
56469;SDS011;42374;51.464;-2.590;2022-09-09T15:49:37;1.85;;;0.70;;
56469;SDS011;42374;51.464;-2.590;2022-09-09T15:52:04;3.85;;;0.80;;
56469;SDS011;42374;51.464;-2.590;2022-09-09T15:54:34;4.13;;;0.90;;
56469;SDS011;42374;51.464;-2.590;2022-09-09T15:59:48;2.38;;;0.60;;
56469;SDS011;42374;51.464;-2.590;2022-09-09T16:02:14;3.13;;;0.70;;
56469;SDS011;42374;51.464;-2.590;2022-09-09T16:04:40;2.60;;;0.60;;
56469;SDS011;42374;51.464;-2.590;2022-09-09T16:09:53;1.25;;;0.65;;
56469;SDS011;42374;51.464;-2.590;2022-09-09T16:12:19;2.40;;;0.45;;
56469;SDS011;42374;51.464;-2.590;2022-09-09T16:14:46;1.83;;;0.60;;
56469;SDS011;42374;51.464;-2.590;2022-09-09T16:17:14;1.55;;;0.50;;
56469;SDS011;42374;51.464;-2.590;2022-09-09T16:19:40;2.67;;;0.60;;
56469;SDS011;42374;51.464;-2.590;2022-09-09T16:22:06;3.22;;;0.52;;
56469;SDS011;42374;51.464;-2.590;2022-09-09T16:24:33;2.70;;;0.60;;
56469;SDS011;42374;51.464;-2.590;2022-09-09T16:29:45;3.72;;;0.73;;
56469;SDS011;42374;51.464;-2.590;2022-09-09T16:32:13;1.95;;;0.60;;
56469;SDS011;42374;51.464;-2.590;2022-09-09T16:34:39;1.33;;;0.40;;
56469;SDS011;42374;51.464;-2.590;2022-09-09T16:39:37;2.63;;;0.70;;
56469;SDS011;42374;51.464;-2.590;2022-09-09T16:42:04;4.15;;;0.57;;
56469;SDS011;42374;51.464;-2.590;2022-09-09T16:44:30;2.13;;;0.70;;
56469;SDS011;42374;51.464;-2.590;2022-09-09T16:50:00;2.15;;;0.80;;
56469;SDS011;42374;51.464;-2.590;2022-09-09T16:52:26;1.35;;;0.50;;
56469;SDS011;42374;51.464;-2.590;2022-09-09T16:54:52;4.20;;;0.70;;
56469;SDS011;42374;51.464;-2.590;2022-09-09T17:00:06;2.08;;;0.60;;
56469;SDS011;42374;51.464;-2.590;2022-09-09T17:02:33;2.70;;;0.88;;
56469;SDS011;42374;51.464;-2.590;2022-09-09T17:04:59;2.90;;;0.60;;
56469;SDS011;42374;51.464;-2.590;2022-09-09T17:07:26;2.63;;;1.00;;
56469;SDS011;42374;51.464;-2.590;2022-09-09T17:09:52;2.00;;;0.77;;
56469;SDS011;42374;51.464;-2.590;2022-09-09T17:12:19;4.25;;;0.73;;
56469;SDS011;42374;51.464;-2.590;2022-09-09T17:14:45;4.32;;;1.30;;
56469;SDS011;42374;51.464;-2.590;2022-09-09T17:17:12;2.13;;;0.90;;
56469;SDS011;42374;51.464;-2.590;2022-09-09T17:19:38;1.88;;;1.35;;
56469;SDS011;42374;51.464;-2.590;2022-09-09T17:22:04;5.43;;;1.27;;
56469;SDS011;42374;51.464;-2.590;2022-09-09T17:24:30;2.15;;;1.20;;
56469;SDS011;42374;51.464;-2.590;2022-09-09T17:26:58;3.03;;;1.40;;
56469;SDS011;42374;51.464;-2.590;2022-09-09T17:29:25;2.95;;;1.17;;
56469;SDS011;42374;51.464;-2.590;2022-09-09T17:31:51;2.42;;;1.27;;
56469;SDS011;42374;51.464;-2.590;2022-09-09T17:34:17;3.38;;;1.20;;
56469;SDS011;42374;51.464;-2.590;2022-09-09T17:39:46;4.53;;;1.30;;
56469;SDS011;42374;51.464;-2.590;2022-09-09T17:42:13;2.65;;;1.42;;
56469;SDS011;42374;51.464;-2.590;2022-09-09T17:44:39;4.55;;;1.23;;
56469;SDS011;42374;51.464;-2.590;2022-09-09T17:50:10;3.10;;;1.30;;
56469;SDS011;42374;51.464;-2.590;2022-09-09T17:55:23;2.60;;;1.20;;
56469;SDS011;42374;51.464;-2.590;2022-09-09T17:57:50;4.05;;;1.55;;
56469;SDS011;42374;51.464;-2.590;2022-09-09T18:00:16;3.38;;;1.25;;
56469;SDS011;42374;51.464;-2.590;2022-09-09T18:02:46;4.95;;;1.65;;
56469;SDS011;42374;51.464;-2.590;2022-09-09T18:05:12;5.25;;;1.80;;
56469;SDS011;42374;51.464;-2.590;2022-09-09T18:10:25;3.75;;;1.60;;
56469;SDS011;42374;51.464;-2.590;2022-09-09T18:12:51;6.50;;;1.80;;
56469;SDS011;42374;51.464;-2.590;2022-09-09T18:15:17;2.70;;;1.63;;
56469;SDS011;42374;51.464;-2.590;2022-09-09T18:17:45;9.25;;;3.78;;
56469;SDS011;42374;51.464;-2.590;2022-09-09T18:20:11;5.72;;;1.30;;
56469;SDS011;42374;51.464;-2.590;2022-09-09T18:22:37;4.15;;;2.10;;
56469;SDS011;42374;51.464;-2.590;2022-09-09T18:25:03;5.65;;;1.80;;
56469;SDS011;42374;51.464;-2.590;2022-09-09T18:27:29;3.50;;;1.55;;